Página principal
METAR-TAF:

METAR-TAF

Aeroportos :

Port of Spain, Trinidad, Trinidad e Tobago

Aeroporto Internacional de Piarco

latitude: 10-37N, longitude: 061-21W, altura: 12 m

Observação actual do tempo

O boletim foi feito há 46 minutos, às 16:00 UTC
Vento 17 kt de este
Temperatura 34°C
Humidade 50%
Pressão 1013 hPa
Visibilidade 10 km ou mais
Nuvens dispersasa uma altura de 2000 ft

METAR: TTPP 271600Z 10017KT 9999 SCT020 34/22 Q1013 NOSIG

Hora: 12:46 (16:46 UTC)

Previsão

O boletim foi feito há 6 horas e 46 minutos, às 10:00 UTC
Previsão válida de 27 às 12 UTC a 28 às 12 UTC
Vento 16 kt de es-sudeste
Visibilidade: 9000 m
Nuvens dispersasa uma altura de 2500 ft
Tornando-se
de 27 às 23 UTC a 28 às 01 UTC
Vento 6 kt de este
Poucas nuvensa uma altura de 1600 ft

TAF: TTPP 271000Z 2712/2812 11016KT 9000 SCT025 BECMG 2723/2801 10006KT FEW016

Observações e previsões do tempo de mais de 4000 aeroportos (mensagens METAR e TAF).

As estações disponíveis são os pontos amarelos e vermelhos sobre o mapa.

Mova o rato sobre o mapa para ver o nome da estação.

Depois clique no ponto para visualizar as observações e previsões meteorológicas.

Para alterar o mapa : clique nos botões verdes com uma cruz preta para aumentar o zoom; no botão verde com uma pitada de zoom; ou nas setas verdes para mapas adjacentes.


METAR-TAF: